Time;durP1;ratioP1;P1;durP2;ratioP2;P2;SDS_P1;SDS_P2;PMS_P1;PMS_P2;Temp;Humidity;BMP_temperature;BMP_pressure;BME280_temperature;BME280_humidity;BME280_pressure;Samples;Min_cycle;Max_cycle;Signal;HPM_P1;HPM_P2
2024/03/19 00:00:38;;;;;;;6.63;4.70;;;;;;;12.21;76.50;98727.47;5095174;28;20032;-49
2024/03/19 00:03:08;;;;;;;8.93;7.70;;;;;;;11.96;75.96;98725.56;5095148;28;20016;-49
2024/03/19 00:05:34;;;;;;;8.00;5.40;;;;;;;11.51;75.88;98728.06;5094943;28;20066;-49
2024/03/19 00:08:00;;;;;;;118.95;108.40;;;;;;;10.98;77.23;98727.09;5095057;28;20055;-49
2024/03/19 00:10:26;;;;;;;23.50;19.17;;;;;;;11.13;79.22;98726.09;5095230;28;20549;-49
2024/03/19 00:12:52;;;;;;;95.15;87.03;;;;;;;11.48;79.59;98723.22;5095190;28;20016;-49
2024/03/19 00:15:18;;;;;;;61.85;56.38;;;;;;;11.72;79.04;98722.56;5093827;28;20363;-49
2024/03/19 00:17:45;;;;;;;77.63;70.65;;;;;;;11.65;77.75;98719.16;5093769;28;20027;-49
2024/03/19 00:20:11;;;;;;;46.50;41.88;;;;;;;11.65;78.25;98724.41;5093733;28;20027;-49
2024/03/19 00:22:37;;;;;;;34.65;27.48;;;;;;;11.67;78.51;98719.75;5093400;28;20410;-49
2024/03/19 00:25:05;;;;;;;67.00;60.67;;;;;;;11.50;77.51;98723.84;5076168;28;20126;-49
2024/03/19 00:27:32;;;;;;;24.63;22.27;;;;;;;11.56;79.05;98715.94;5076998;28;20111;-49
2024/03/19 00:29:58;;;;;;;8.55;6.65;;;;;;;11.66;78.34;98712.88;5094813;28;20421;-49
2024/03/19 00:32:24;;;;;;;8.15;4.72;;;;;;;11.42;77.56;98718.78;5094508;28;20482;-49
2024/03/19 00:34:50;;;;;;;21.35;19.38;;;;;;;10.91;77.09;98720.25;5094556;28;20423;-49
2024/03/19 00:37:16;;;;;;;66.30;59.95;;;;;;;10.64;79.16;98722.81;5094483;28;20024;-49
2024/03/19 00:39:42;;;;;;;7.80;4.78;;;;;;;10.44;79.39;98727.22;5094484;28;20016;-49
2024/03/19 00:42:07;;;;;;;10.60;5.97;;;;;;;10.34;80.42;98711.84;5094655;28;20020;-49
2024/03/19 00:44:33;;;;;;;11.38;10.15;;;;;;;10.38;81.45;98720.94;5093289;28;20035;-49
2024/03/19 00:47:00;;;;;;;42.25;38.22;;;;;;;10.34;81.30;98723.19;5093287;28;20036;-49
2024/03/19 00:49:26;;;;;;;13.57;11.82;;;;;;;10.31;81.88;98718.31;5094270;28;20016;-49
2024/03/19 00:51:52;;;;;;;37.47;33.97;;;;;;;10.37;81.69;98721.97;5094286;28;20035;-49
2024/03/19 00:54:18;;;;;;;52.17;47.30;;;;;;;10.37;82.50;98722.78;5094117;28;20551;-49
2024/03/19 00:56:44;;;;;;;88.15;80.22;;;;;;;10.58;82.57;98721.00;5092803;28;20036;-49
2024/03/19 00:59:09;;;;;;;10.23;9.15;;;;;;;10.76;82.73;98712.53;5094037;28;20020;-49
2024/03/19 01:01:35;;;;;;;44.42;40.17;;;;;;;10.82;82.40;98721.44;5094233;28;20020;-49
2024/03/19 01:04:04;;;;;;;14.90;13.23;;;;;;;10.92;82.06;98714.78;5092973;28;20489;-49
2024/03/19 01:06:37;;;;;;;49.10;44.53;;;;;;;10.93;81.85;98715.59;5093885;28;20058;-49
2024/03/19 01:09:12;;;;;;;18.20;7.88;;;;;;;10.75;80.81;98710.94;5092846;28;20036;-49
2024/03/19 01:11:41;;;;;;;103.85;92.93;;;;;;;10.34;80.70;98717.09;5093894;28;20101;-49
2024/03/19 01:14:07;;;;;;;131.20;118.57;;;;;;;10.22;81.73;98718.66;5093762;28;20032;-49
2024/03/19 01:16:33;;;;;;;113.95;103.47;;;;;;;10.23;82.26;98720.28;5092572;28;20027;-49
2024/03/19 01:18:59;;;;;;;14.88;13.48;;;;;;;10.31;82.45;98714.91;5092649;28;20458;-49
2024/03/19 01:21:25;;;;;;;5.55;4.50;;;;;;;10.12;82.15;98717.22;5092640;28;20028;-49
2024/03/19 01:23:52;;;;;;;85.03;77.75;;;;;;;9.92;82.37;98713.69;5097418;28;20048;-49
2024/03/19 01:26:18;;;;;;;97.07;87.78;;;;;;;9.86;83.09;98717.94;5092392;28;20065;-49
2024/03/19 01:28:46;;;;;;;46.15;41.78;;;;;;;9.96;83.58;98715.75;5092149;28;20032;-49
2024/03/19 01:31:12;;;;;;;19.27;17.00;;;;;;;10.02;83.48;98708.94;5092090;28;20024;-49
2024/03/19 01:33:38;;;;;;;21.80;19.60;;;;;;;10.02;83.26;98698.44;5093374;28;20024;-49
2024/03/19 01:36:04;;;;;;;76.78;69.68;;;;;;;10.07;83.60;98706.50;5093299;28;20061;-48
2024/03/19 01:38:30;;;;;;;93.15;84.80;;;;;;;10.11;83.85;98712.97;5093237;28;20032;-49
2024/03/19 01:40:56;;;;;;;45.60;41.25;;;;;;;10.26;83.75;98709.38;5093176;28;20555;-49
2024/03/19 01:43:22;;;;;;;26.75;24.13;;;;;;;10.13;83.01;98700.47;5093179;28;20061;-49
2024/03/19 01:46:20;;;;;;;43.83;39.53;;;;;;;10.07;84.44;98696.03;5091728;28;20027;-49
2024/03/19 01:48:46;;;;;;;64.68;58.63;;;;;;;10.08;84.23;98702.06;5092178;28;20035;-49
2024/03/19 01:51:13;;;;;;;41.67;37.42;;;;;;;10.23;84.91;98697.50;5091655;28;20529;-49
2024/03/19 01:53:38;;;;;;;31.88;28.83;;;;;;;10.30;84.11;98702.78;5091666;28;20016;-49
2024/03/19 01:56:06;;;;;;;25.13;22.75;;;;;;;10.26;83.45;98699.72;5091666;28;20023;-49
2024/03/19 01:58:33;;;;;;;15.27;13.23;;;;;;;10.26;83.49;98694.47;5091604;28;20061;-49
2024/03/19 02:00:59;;;;;;;7.95;7.25;;;;;;;9.99;82.13;98702.25;5092788;28;20023;-49
2024/03/19 02:03:25;;;;;;;11.38;8.15;;;;;;;9.53;83.01;98702.03;5092868;28;20394;-49
2024/03/19 02:05:51;;;;;;;9.52;7.68;;;;;;;9.09;84.83;98706.56;5091403;28;20024;-49
2024/03/19 02:08:16;;;;;;;18.17;16.55;;;;;;;8.83;86.71;98704.53;5092708;28;20084;-49
2024/03/19 02:10:43;;;;;;;20.85;18.23;;;;;;;8.66;87.65;98695.34;5090853;28;20043;-49
2024/03/19 02:13:09;;;;;;;10.60;9.05;;;;;;;8.59;88.73;98700.50;5091304;28;20031;-49
2024/03/19 02:15:35;;;;;;;8.95;8.05;;;;;;;8.52;89.94;98687.38;5091324;28;20020;-49
2024/03/19 02:18:01;;;;;;;27.27;24.88;;;;;;;8.45;91.03;98686.50;5091272;28;20027;-49
2024/03/19 02:20:27;;;;;;;12.23;8.15;;;;;;;8.44;91.72;98686.69;5092445;28;20032;-49
2024/03/19 02:22:53;;;;;;;23.90;21.73;;;;;;;8.39;92.63;98682.81;5092407;28;20031;-49
2024/03/19 02:25:22;;;;;;;7.13;6.10;;;;;;;8.36;93.43;98684.97;5090799;28;20044;-49
2024/03/19 02:27:48;;;;;;;8.80;6.65;;;;;;;8.37;93.81;98692.63;5092417;28;20032;-49
2024/03/19 02:30:13;;;;;;;10.65;8.13;;;;;;;8.42;94.27;98681.63;5091032;28;20044;-49
2024/03/19 02:32:39;;;;;;;19.58;16.92;;;;;;;8.49;94.06;98684.31;5091040;28;20101;-49
2024/03/19 02:35:06;;;;;;;12.15;8.45;;;;;;;8.45;93.63;98683.91;5092246;28;20016;-49
2024/03/19 02:37:32;;;;;;;24.58;22.00;;;;;;;8.33;94.13;98691.38;5092243;28;20522;-49
2024/03/19 02:39:59;;;;;;;12.45;9.95;;;;;;;8.28;94.29;98692.94;5090883;28;20074;-49
2024/03/19 02:42:25;;;;;;;34.00;30.80;;;;;;;8.35;94.62;98697.25;5090810;28;20020;-49
2024/03/19 02:44:51;;;;;;;11.98;9.13;;;;;;;8.46;94.45;98690.72;5090771;28;20077;-49
2024/03/19 02:47:17;;;;;;;8.90;5.35;;;;;;;8.35;94.20;98680.72;5092028;28;20035;-49
2024/03/19 02:49:42;;;;;;;9.88;5.65;;;;;;;8.24;93.98;98687.25;5090819;28;20304;-49
2024/03/19 02:52:10;;;;;;;6.32;5.30;;;;;;;8.22;94.80;98691.06;5074169;28;20035;-49
2024/03/19 02:54:37;;;;;;;25.92;23.05;;;;;;;8.21;94.75;98692.88;5092008;28;20102;-49
2024/03/19 02:57:02;;;;;;;6.18;5.57;;;;;;;8.29;94.89;98687.53;5091950;28;20016;-49
2024/03/19 02:59:29;;;;;;;5.85;4.20;;;;;;;8.36;94.68;98690.19;5092010;28;20028;-49
2024/03/19 03:01:56;;;;;;;5.90;4.95;;;;;;;8.28;94.64;98687.72;5092240;28;20097;-49
2024/03/19 03:04:22;;;;;;;7.15;4.07;;;;;;;8.15;94.66;98691.00;5091786;28;20020;-49
2024/03/19 03:06:49;;;;;;;22.73;20.35;;;;;;;8.03;94.44;98697.66;5090508;28;20031;-49
2024/03/19 03:09:14;;;;;;;8.75;5.82;;;;;;;7.94;94.85;98692.56;5092032;28;20020;-49
2024/03/19 03:11:40;;;;;;;10.57;7.63;;;;;;;7.98;95.91;98691.19;5091825;28;20595;-49
2024/03/19 03:14:06;;;;;;;15.25;12.45;;;;;;;7.99;96.40;98690.22;5091832;28;20043;-49
2024/03/19 03:16:32;;;;;;;24.27;17.90;;;;;;;8.18;96.41;98686.19;5091807;28;20020;-49
2024/03/19 03:18:57;;;;;;;21.65;19.45;;;;;;;8.27;96.46;98689.53;5091771;28;20078;-49
2024/03/19 03:21:23;;;;;;;35.75;32.15;;;;;;;8.40;96.20;98673.94;5091653;28;20497;-48
2024/03/19 03:23:49;;;;;;;10.40;8.18;;;;;;;8.57;95.84;98676.34;5094427;28;20504;-50
2024/03/19 03:26:15;;;;;;;51.85;46.85;;;;;;;8.73;95.75;98672.66;5094749;28;20397;-49
2024/03/19 03:28:41;;;;;;;68.35;61.75;;;;;;;8.92;95.74;98679.06;5095781;28;20103;-49
2024/03/19 03:31:07;;;;;;;24.00;21.45;;;;;;;9.12;95.46;98666.94;5094406;28;20028;-49
2024/03/19 03:33:33;;;;;;;12.63;7.93;;;;;;;9.31;95.05;98672.47;5095661;28;20028;-49
2024/03/19 03:35:59;;;;;;;13.80;10.02;;;;;;;9.23;93.36;98673.44;5094288;28;20379;-49
2024/03/19 03:38:25;;;;;;;9.45;8.52;;;;;;;9.16;93.26;98675.22;5094546;28;20016;-49
2024/03/19 03:40:53;;;;;;;19.65;17.63;;;;;;;9.16;92.92;98667.34;5094217;28;20102;-49
2024/03/19 03:43:20;;;;;;;57.10;51.88;;;;;;;9.25;92.67;98676.66;5095512;28;20047;-49
2024/03/19 03:45:46;;;;;;;68.40;62.08;;;;;;;9.24;91.86;98671.66;5094099;28;20099;-49
2024/03/19 03:48:12;;;;;;;8.98;7.78;;;;;;;9.12;91.08;98676.59;5095435;28;20406;-49
2024/03/19 03:50:38;;;;;;;8.25;5.80;;;;;;;8.85;89.47;98675.56;5094047;28;20024;-49
2024/03/19 03:53:03;;;;;;;11.57;9.02;;;;;;;8.46;89.89;98682.88;5095317;28;20023;-49
2024/03/19 03:55:29;;;;;;;6.60;5.50;;;;;;;8.14;90.68;98686.75;5095229;28;20486;-48
2024/03/19 03:57:55;;;;;;;23.15;20.92;;;;;;;7.95;91.61;98688.16;5095300;28;20020;-49
2024/03/19 04:00:21;;;;;;;80.97;72.90;;;;;;;7.97;92.77;98686.97;5093845;28;20024;-49
2024/03/19 04:02:48;;;;;;;75.45;67.95;;;;;;;8.04;93.20;98683.63;5095122;28;20024;-49
2024/03/19 04:05:14;;;;;;;9.30;7.30;;;;;;;8.11;93.51;98689.72;5095001;28;20035;-49
2024/03/19 04:07:42;;;;;;;12.18;10.07;;;;;;;8.03;92.91;98687.22;5095118;28;20027;-49
2024/03/19 04:10:13;;;;;;;21.40;15.70;;;;;;;7.86;93.63;98691.84;5095294;28;20406;-49
2024/03/19 04:12:40;;;;;;;81.35;73.97;;;;;;;8.07;94.99;98691.09;5095107;28;20028;-49
2024/03/19 04:15:07;;;;;;;121.47;109.82;;;;;;;8.58;96.14;98689.25;5094843;28;20099;-49
2024/03/19 04:17:33;;;;;;;75.72;68.55;;;;;;;9.13;96.26;98686.84;5093613;28;20073;-49
2024/03/19 04:19:59;;;;;;;10.57;7.70;;;;;;;9.62;95.06;98681.72;5094833;28;20031;-49
2024/03/19 04:22:26;;;;;;;11.07;7.88;;;;;;;9.52;91.50;98684.72;5094840;28;20024;-49
2024/03/19 04:24:52;;;;;;;13.82;9.18;;;;;;;9.14;90.17;98687.69;5094535;28;20077;-49
2024/03/19 04:27:18;;;;;;;14.80;13.30;;;;;;;8.85;90.25;98686.84;5093321;28;20450;-49
2024/03/19 04:29:44;;;;;;;9.43;5.88;;;;;;;8.54;89.86;98684.56;5094715;28;20027;-49
2024/03/19 04:32:10;;;;;;;16.05;11.52;;;;;;;8.38;90.16;98696.06;5094561;28;20572;-49
2024/03/19 04:34:35;;;;;;;24.08;19.98;;;;;;;8.26;90.74;98695.72;5094157;28;20028;-49
2024/03/19 04:37:01;;;;;;;28.83;26.08;;;;;;;8.52;92.91;98694.41;5093167;28;20020;-49
2024/03/19 04:39:27;;;;;;;26.92;24.48;;;;;;;8.76;92.19;98698.47;5094426;28;20111;-49
2024/03/19 04:41:53;;;;;;;7.88;7.07;;;;;;;8.67;91.00;98696.97;5093341;28;20117;-49
2024/03/19 04:44:19;;;;;;;86.43;78.53;;;;;;;8.62;91.44;98699.34;5094326;28;20024;-49
2024/03/19 04:46:45;;;;;;;314.27;287.20;;;;;;;8.86;92.29;98704.19;5094270;28;20028;-49
2024/03/19 04:49:11;;;;;;;112.75;102.25;;;;;;;9.44;93.43;98705.78;5094261;28;20038;-49
2024/03/19 04:51:36;;;;;;;68.82;62.13;;;;;;;9.92;91.92;98704.03;5092881;28;20449;-49
2024/03/19 04:54:02;;;;;;;27.33;24.90;;;;;;;10.24;90.32;98708.78;5094204;28;20074;-49
2024/03/19 04:56:28;;;;;;;20.48;18.48;;;;;;;10.27;88.49;98708.41;5094158;28;20099;-49
2024/03/19 04:58:54;;;;;;;169.63;154.88;;;;;;;10.14;87.29;98709.97;5094133;28;20035;-49
2024/03/19 05:01:19;;;;;;;15.20;13.48;;;;;;;10.17;87.18;98709.56;5094277;28;20044;-49
2024/03/19 05:03:46;;;;;;;106.85;96.82;;;;;;;10.20;86.70;98711.81;5092749;28;20501;-49
2024/03/19 05:06:12;;;;;;;14.55;11.27;;;;;;;10.50;86.87;98714.16;5093887;28;20023;-49
2024/03/19 05:08:39;;;;;;;123.93;112.53;;;;;;;10.91;85.90;98715.00;5092563;28;20035;-49
2024/03/19 05:11:05;;;;;;;65.70;59.30;;;;;;;11.30;84.24;98716.78;5093835;28;20039;-49
2024/03/19 05:13:31;;;;;;;18.67;15.30;;;;;;;11.46;82.63;98709.50;5093836;28;20024;-49
2024/03/19 05:15:57;;;;;;;13.25;8.23;;;;;;;11.58;81.63;98713.09;5093741;28;20027;-49
2024/03/19 05:18:23;;;;;;;61.78;56.05;;;;;;;11.67;80.46;98713.66;5093943;28;20399;-49
2024/03/19 05:20:49;;;;;;;46.05;41.50;;;;;;;11.83;80.02;98713.25;5093723;28;20048;-49
2024/03/19 05:23:14;;;;;;;21.38;19.35;;;;;;;11.83;78.69;98708.00;5093676;28;20051;-49
2024/03/19 05:25:42;;;;;;;8.93;5.88;;;;;;;11.74;77.88;98717.09;5091827;28;20044;-50
2024/03/19 05:28:08;;;;;;;73.65;67.28;;;;;;;11.44;77.36;98714.94;5092246;28;20487;-49
2024/03/19 05:30:34;;;;;;;16.95;13.75;;;;;;;11.34;77.96;98709.31;5093512;28;20043;-49
2024/03/19 05:33:00;;;;;;;15.80;8.95;;;;;;;11.00;76.87;98719.03;5093463;28;20409;-49
2024/03/19 05:35:26;;;;;;;10.90;8.55;;;;;;;10.76;77.60;98717.78;5093378;28;20398;-49
2024/03/19 05:37:52;;;;;;;34.03;30.77;;;;;;;10.50;76.98;98714.16;5092150;28;20031;-49
2024/03/19 05:40:19;;;;;;;44.47;40.45;;;;;;;10.29;78.24;98719.50;5092221;28;20028;-49
2024/03/19 05:42:46;;;;;;;76.72;69.88;;;;;;;10.37;79.32;98721.97;5093224;28;20020;-49
2024/03/19 05:45:12;;;;;;;39.03;35.22;;;;;;;10.58;79.58;98724.44;5091017;28;20402;-49
2024/03/19 05:47:39;;;;;;;86.00;77.97;;;;;;;10.82;79.84;98727.50;5093096;28;20024;-49
2024/03/19 05:50:08;;;;;;;61.10;55.58;;;;;;;11.19;79.85;98718.22;5093056;28;20515;-49
2024/03/19 05:52:34;;;;;;;73.13;66.35;;;;;;;11.40;78.53;98727.69;5091709;28;20035;-49
2024/03/19 05:54:59;;;;;;;27.52;24.90;;;;;;;11.56;78.19;98731.69;5093046;28;20020;-49
2024/03/19 05:57:25;;;;;;;20.63;18.30;;;;;;;11.17;76.12;98728.13;5092963;28;20064;-49
2024/03/19 05:59:51;;;;;;;11.52;9.05;;;;;;;10.68;76.41;98731.13;5092969;28;20054;-48
2024/03/19 06:02:16;;;;;;;16.40;14.07;;;;;;;10.28;77.26;98738.84;5092850;28;20529;-49
2024/03/19 06:04:42;;;;;;;9.93;8.20;;;;;;;9.97;78.75;98743.56;5091432;28;20104;-49
2024/03/19 06:07:08;;;;;;;12.23;8.45;;;;;;;9.77;79.98;98748.72;5092784;28;20077;-49
2024/03/19 06:09:33;;;;;;;8.93;7.70;;;;;;;9.62;81.11;98749.84;5091737;28;20042;-49
2024/03/19 06:11:59;;;;;;;65.32;59.40;;;;;;;9.84;83.37;98750.56;5091329;28;20039;-49
2024/03/19 06:14:25;;;;;;;19.08;16.95;;;;;;;10.23;82.79;98749.94;5092624;28;20085;-49
2024/03/19 06:16:51;;;;;;;97.55;88.88;;;;;;;10.36;83.09;98749.19;5092552;28;20095;-49
2024/03/19 06:19:17;;;;;;;42.08;38.08;;;;;;;10.91;83.61;98744.69;5092776;28;20363;-49
2024/03/19 06:21:44;;;;;;;16.33;12.07;;;;;;;11.37;81.85;98750.94;5092519;28;20133;-49
2024/03/19 06:24:10;;;;;;;119.00;108.40;;;;;;;11.37;81.39;98756.22;5092228;28;20035;-50
2024/03/19 06:26:36;;;;;;;37.67;34.25;;;;;;;11.52;80.80;98763.84;5091360;28;20040;-49
2024/03/19 06:29:03;;;;;;;13.63;12.18;;;;;;;11.69;80.17;98767.69;5092388;28;20488;-49
2024/03/19 06:31:30;;;;;;;66.00;60.13;;;;;;;11.70;79.57;98769.28;5092560;28;20441;-49
2024/03/19 06:33:56;;;;;;;11.50;8.48;;;;;;;11.77;79.60;98774.53;5091276;28;20115;-49
2024/03/19 06:36:22;;;;;;;11.38;9.48;;;;;;;11.60;78.76;98774.16;5090944;28;20104;-49
2024/03/19 06:38:48;;;;;;;15.27;9.55;;;;;;;11.40;78.27;98777.59;5092267;28;20039;-49
2024/03/19 06:41:13;;;;;;;24.45;21.98;;;;;;;11.40;79.32;98780.22;5092207;28;20584;-49
2024/03/19 06:43:40;;;;;;;13.18;8.02;;;;;;;11.49;78.60;98787.91;5092164;28;20028;-49
2024/03/19 06:46:06;;;;;;;29.45;25.00;;;;;;;11.52;79.35;98782.25;5092000;28;20035;-49
2024/03/19 06:48:32;;;;;;;82.75;75.35;;;;;;;11.53;78.34;98784.69;5092103;28;20028;-49
2024/03/19 06:50:59;;;;;;;15.43;9.95;;;;;;;11.39;78.51;98781.25;5090829;28;20028;-49
2024/03/19 06:53:27;;;;;;;13.77;8.40;;;;;;;11.15;78.84;98790.56;5090972;28;20110;-49
2024/03/19 06:55:56;;;;;;;16.33;13.60;;;;;;;11.02;79.75;98793.16;5090707;28;20080;-49
2024/03/19 06:58:23;;;;;;;18.98;10.82;;;;;;;11.06;80.30;98796.19;5091875;28;20028;-48
2024/03/19 07:00:51;;;;;;;16.02;13.68;;;;;;;11.07;80.72;98797.81;5091889;28;20019;-49
2024/03/19 07:03:18;;;;;;;20.48;13.93;;;;;;;11.11;80.75;98796.41;5091954;28;20111;-49
2024/03/19 07:05:45;;;;;;;17.98;11.13;;;;;;;11.08;80.86;98802.84;5091836;28;20027;-49
2024/03/19 07:08:12;;;;;;;17.77;12.25;;;;;;;11.05;81.46;98798.03;5090511;28;20035;-49
2024/03/19 07:10:38;;;;;;;17.80;10.70;;;;;;;10.99;82.17;98804.06;5091846;28;20081;-49
2024/03/19 07:13:05;;;;;;;12.75;10.43;;;;;;;11.03;83.24;98807.09;5091773;28;20039;-49
2024/03/19 07:15:31;;;;;;;19.05;14.50;;;;;;;11.13;83.76;98802.28;5090476;28;20111;-49
2024/03/19 07:18:01;;;;;;;88.53;80.82;;;;;;;11.48;84.68;98802.06;5091752;28;20188;-49
2024/03/19 07:20:31;;;;;;;33.88;30.42;;;;;;;12.15;84.69;98814.13;5090430;28;20042;-49
2024/03/19 07:22:58;;;;;;;54.28;48.70;;;;;;;12.74;83.86;98820.16;5091778;28;20096;-49
2024/03/19 07:25:24;;;;;;;53.22;48.35;;;;;;;13.40;82.56;98810.22;5091384;28;20052;-49
2024/03/19 07:27:50;;;;;;;75.68;68.22;;;;;;;13.96;80.90;98813.75;5091625;28;20035;-49
2024/03/19 07:30:17;;;;;;;20.48;12.93;;;;;;;14.24;78.53;98805.31;5091624;28;20028;-49
2024/03/19 07:32:44;;;;;;;16.85;11.18;;;;;;;14.27;77.61;98806.75;5091858;28;20103;-49
2024/03/19 07:35:10;;;;;;;30.77;22.60;;;;;;;14.46;77.19;98808.31;5091588;28;20020;-49
2024/03/19 07:37:40;;;;;;;37.83;28.10;;;;;;;14.87;76.21;98808.63;5091588;28;20051;-49
2024/03/19 07:40:11;;;;;;;52.00;46.72;;;;;;;15.17;74.24;98808.56;5091487;28;20028;-49
2024/03/19 07:42:37;;;;;;;57.55;51.63;;;;;;;15.42;72.97;98813.69;5090316;28;20073;-49
2024/03/19 07:45:05;;;;;;;43.90;34.83;;;;;;;15.68;72.69;98811.63;5090135;28;20107;-47
2024/03/19 07:47:31;;;;;;;69.18;61.38;;;;;;;15.87;71.38;98815.00;5091441;28;20543;-47
2024/03/19 07:49:57;;;;;;;50.00;36.97;;;;;;;16.13;70.86;98813.69;5091451;28;20103;-47
2024/03/19 07:52:23;;;;;;;33.92;11.25;;;;;;;16.17;69.37;98810.34;5091353;28;20114;-47
2024/03/19 07:54:49;;;;;;;65.70;58.78;;;;;;;16.16;69.51;98807.94;5090407;28;20032;-47
2024/03/19 07:57:15;;;;;;;36.03;26.10;;;;;;;16.42;69.34;98809.25;5091427;28;20077;-47
2024/03/19 07:59:41;;;;;;;68.25;52.38;;;;;;;16.75;68.67;98813.84;5091276;28;20028;-47
2024/03/19 08:02:08;;;;;;;75.25;58.50;;;;;;;17.03;67.22;98817.53;5091655;28;20031;-47
2024/03/19 08:04:34;;;;;;;95.10;52.35;;;;;;;17.27;66.74;98818.22;5091229;28;20478;-48
2024/03/19 08:06:59;;;;;;;42.33;24.75;;;;;;;17.39;65.99;98818.13;5091173;28;20024;-47
2024/03/19 08:09:25;;;;;;;36.38;32.92;;;;;;;17.42;65.15;98822.94;5093249;28;20097;-47
2024/03/19 08:11:54;;;;;;;34.95;19.55;;;;;;;17.32;64.23;98817.47;5095027;28;20038;-47
2024/03/19 08:14:20;;;;;;;40.65;36.08;;;;;;;17.20;64.83;98830.81;5094988;28;20104;-47
2024/03/19 08:16:46;;;;;;;11.07;8.57;;;;;;;17.10;64.28;98833.28;5093563;28;20051;-47
2024/03/19 08:19:12;;;;;;;26.92;24.42;;;;;;;16.82;64.47;98829.66;5093693;28;20081;-47
2024/03/19 08:21:38;;;;;;;32.58;29.38;;;;;;;16.90;65.85;98823.97;5093798;28;20039;-47
2024/03/19 08:24:04;;;;;;;31.67;28.30;;;;;;;17.24;65.67;98831.94;5094601;28;20054;-48
2024/03/19 08:26:33;;;;;;;13.38;11.38;;;;;;;17.52;63.75;98833.72;5093642;28;20498;-47
2024/03/19 08:29:03;;;;;;;46.95;38.10;;;;;;;17.68;63.77;98837.41;5094652;28;20096;-47
2024/03/19 08:31:28;;;;;;;27.70;22.60;;;;;;;17.95;62.89;98828.81;5094682;28;20382;-47
2024/03/19 08:33:54;;;;;;;21.20;18.13;;;;;;;18.13;62.11;98833.84;5094691;28;20153;-47
2024/03/19 08:36:20;;;;;;;24.52;22.23;;;;;;;18.35;61.50;98835.69;5093230;28;20118;-47
2024/03/19 08:38:47;;;;;;;49.95;44.97;;;;;;;18.61;60.82;98838.63;5094424;28;20020;-47
2024/03/19 08:41:12;;;;;;;46.80;42.00;;;;;;;18.90;60.22;98836.59;5094458;28;20028;-47
2024/03/19 08:43:38;;;;;;;12.93;11.63;;;;;;;19.15;58.58;98839.47;5094418;28;20455;-47
2024/03/19 08:46:04;;;;;;;12.27;10.07;;;;;;;19.20;58.01;98838.75;5094178;28;20532;-47
2024/03/19 08:48:29;;;;;;;18.40;14.25;;;;;;;19.47;57.22;98833.34;5094382;28;20082;-47
2024/03/19 08:50:57;;;;;;;28.33;25.65;;;;;;;20.00;56.30;98841.47;5094283;28;20062;-47
2024/03/19 08:53:23;;;;;;;16.90;14.10;;;;;;;20.79;54.88;98847.69;5092919;28;20445;-47
2024/03/19 08:55:58;;;;;;;35.15;23.67;;;;;;;22.01;52.76;98838.06;5094191;28;20020;-47
2024/03/19 08:58:23;;;;;;;26.55;23.80;;;;;;;23.26;48.59;98838.03;5094086;28;20028;-48
2024/03/19 09:00:50;;;;;;;33.38;30.35;;;;;;;23.68;46.37;98833.09;5094057;28;20394;-47
2024/03/19 09:03:15;;;;;;;10.18;8.05;;;;;;;23.50;45.53;98834.59;5094323;28;20035;-47
2024/03/19 09:05:41;;;;;;;27.27;24.52;;;;;;;23.03;45.74;98836.03;5094021;28;20032;-47
2024/03/19 09:08:07;;;;;;;21.30;19.13;;;;;;;22.82;46.00;98827.31;5092680;28;20485;-47
2024/03/19 09:10:33;;;;;;;11.50;10.43;;;;;;;22.19;46.38;98839.34;5094162;28;20039;-47
2024/03/19 09:12:59;;;;;;;18.00;14.73;;;;;;;21.56;47.84;98831.75;5093763;28;20028;-47
2024/03/19 09:15:26;;;;;;;13.75;12.27;;;;;;;21.24;49.14;98832.78;5093753;28;20031;-47
2024/03/19 09:17:55;;;;;;;12.52;9.48;;;;;;;22.25;48.05;98832.13;5094113;28;20116;-47
2024/03/19 09:20:21;;;;;;;10.57;9.15;;;;;;;23.75;45.11;98830.88;5092812;28;20078;-47
2024/03/19 09:22:47;;;;;;;15.32;9.07;;;;;;;25.39;41.28;98820.72;5093692;28;20031;-48
2024/03/19 09:25:13;;;;;;;11.80;10.52;;;;;;;26.40;39.30;98821.81;5093231;28;20044;-48
2024/03/19 09:27:42;;;;;;;15.02;9.23;;;;;;;26.76;38.30;98815.66;5075488;28;20028;-48
2024/03/19 09:30:09;;;;;;;30.60;19.63;;;;;;;26.48;39.16;98817.59;5092181;28;20092;-48
2024/03/19 09:32:38;;;;;;;15.07;13.50;;;;;;;26.23;38.61;98821.63;5092190;28;20032;-48
2024/03/19 09:35:04;;;;;;;14.73;13.38;;;;;;;25.83;38.02;98821.28;5092086;28;20086;-48
2024/03/19 09:37:31;;;;;;;15.52;14.05;;;;;;;24.81;38.95;98819.19;5092105;28;20032;-48
2024/03/19 09:39:57;;;;;;;34.65;31.15;;;;;;;24.37;40.50;98822.97;5092038;28;20058;-48
2024/03/19 09:42:24;;;;;;;14.32;13.10;;;;;;;25.18;40.03;98830.19;5093315;28;20101;-48
2024/03/19 09:44:53;;;;;;;17.60;14.77;;;;;;;26.27;38.39;98819.94;5092149;28;20035;-48
2024/03/19 09:47:22;;;;;;;16.63;14.90;;;;;;;27.00;37.34;98815.38;5093173;28;20490;-48
2024/03/19 09:49:49;;;;;;;38.65;34.67;;;;;;;27.12;36.73;98817.53;5093017;28;20119;-48
2024/03/19 09:52:15;;;;;;;19.33;17.17;;;;;;;27.25;36.89;98813.22;5091719;28;20051;-48
2024/03/19 09:54:41;;;;;;;55.33;49.88;;;;;;;27.41;37.35;98813.63;5092048;28;20359;-48
2024/03/19 09:57:33;;;;;;;43.30;39.38;;;;;;;27.87;36.75;98809.75;5092969;28;20031;-48
2024/03/19 10:00:00;;;;;;;52.33;46.85;;;;;;;28.23;35.15;98812.25;5089944;28;20086;-47
2024/03/19 10:02:26;;;;;;;14.48;12.98;;;;;;;28.53;33.54;98809.75;5093167;28;20024;-48
2024/03/19 10:04:52;;;;;;;57.50;47.00;;;;;;;29.13;32.97;98808.19;5092808;28;20038;-48
2024/03/19 10:07:20;;;;;;;173.82;155.68;;;;;;;29.84;32.20;98806.88;5092816;28;20051;-48
2024/03/19 10:09:51;;;;;;;82.72;70.00;;;;;;;30.33;30.72;98803.81;5092838;28;20028;-48
2024/03/19 10:12:22;;;;;;;411.85;346.65;;;;;;;30.65;32.63;98815.84;5092803;28;20024;-48
2024/03/19 10:14:48;;;;;;;1295.03;770.63;;;;;;;29.70;32.71;98814.41;5092761;28;20103;-48
2024/03/19 10:17:14;;;;;;;150.48;128.55;;;;;;;28.88;32.50;98821.38;5092600;28;20023;-48
2024/03/19 10:19:40;;;;;;;105.22;78.05;;;;;;;29.04;32.45;98810.88;5092579;28;20507;-48
2024/03/19 10:22:10;;;;;;;13.20;8.13;;;;;;;29.73;31.35;98806.47;5092532;28;20024;-48
2024/03/19 10:24:36;;;;;;;26.58;13.93;;;;;;;30.00;30.78;98810.66;5092148;28;20387;-48
2024/03/19 10:27:05;;;;;;;17.77;12.60;;;;;;;30.49;30.40;98814.84;5092413;28;20109;-48
2024/03/19 10:29:31;;;;;;;115.03;104.70;;;;;;;30.81;29.86;98811.41;5092428;28;20085;-48
2024/03/19 10:31:57;;;;;;;343.85;307.40;;;;;;;31.43;28.23;98811.63;5090649;28;20020;-48
2024/03/19 10:34:23;;;;;;;651.08;493.13;;;;;;;31.75;28.19;98809.22;5092539;28;20409;-45
2024/03/19 10:36:52;;;;;;;1359.68;819.10;;;;;;;32.14;27.95;98801.56;5091336;28;20539;-46
2024/03/19 10:39:22;;;;;;;1284.75;739.63;;;;;;;32.25;27.43;98802.66;5092307;28;20055;-45
2024/03/19 10:41:52;;;;;;;1066.55;591.42;;;;;;;32.14;27.48;98804.28;5091180;28;20570;-46
2024/03/19 10:44:21;;;;;;;520.03;250.05;;;;;;;32.02;27.11;98792.28;5091189;28;20509;-45
2024/03/19 10:46:48;;;;;;;231.93;110.95;;;;;;;31.78;27.60;98797.69;5092018;28;20016;-46
2024/03/19 10:49:19;;;;;;;231.23;115.70;;;;;;;31.87;27.68;98792.94;5092110;28;20040;-45
2024/03/19 10:52:21;;;;;;;73.35;38.65;;;;;;;32.06;27.49;98795.13;5092080;28;20482;-46
2024/03/19 10:54:49;;;;;;;143.18;63.65;;;;;;;31.89;27.59;98796.09;5090759;28;20405;-45
2024/03/19 10:57:17;;;;;;;706.28;481.48;;;;;;;31.11;28.08;98791.53;5091942;28;20034;-45
2024/03/19 10:59:43;;;;;;;1999.90;999.90;;;;;;;31.43;29.27;98795.34;5092219;28;20375;-45
2024/03/19 11:02:18;;;;;;;1167.13;717.03;;;;;;;31.86;28.22;98785.94;5091929;28;20024;-45
2024/03/19 11:04:44;;;;;;;1243.10;799.63;;;;;;;32.26;27.85;98782.53;5092138;28;20031;-45
2024/03/19 11:07:25;;;;;;;1201.55;822.72;;;;;;;32.40;27.97;98780.22;5091817;28;20120;-46
2024/03/19 11:09:52;;;;;;;551.95;494.08;;;;;;;32.70;27.78;98779.13;5091811;28;20032;-46
2024/03/19 11:12:22;;;;;;;545.50;484.20;;;;;;;32.99;26.59;98784.22;5090756;28;20032;-45
2024/03/19 11:14:56;;;;;;;794.55;652.67;;;;;;;33.17;25.60;98782.00;5091860;28;20063;-45
2024/03/19 11:17:28;;;;;;;;;;;;;;;33.47;26.98;98784.31;5092254;28;20516;-45